Time;durP1;ratioP1;P1;durP2;ratioP2;P2;SDS_P1;SDS_P2;PMS_P1;PMS_P2;Temp;Humidity;BMP_temperature;BMP_pressure;BME280_temperature;BME280_humidity;BME280_pressure;Samples;Min_cycle;Max_cycle;Signal;HPM_P1;HPM_P2
2023/06/13 00:02:17;;;;;;;4.88;3.22;;;;;;;21.72;34.88;101283.97;5033033;28;20029;-80
2023/06/13 00:04:43;;;;;;;3.63;2.88;;;;;;;21.67;34.57;101281.63;5044277;28;20020;-80
2023/06/13 00:07:09;;;;;;;5.90;3.08;;;;;;;21.62;34.67;101283.72;5032079;28;20193;-80
2023/06/13 00:09:35;;;;;;;4.93;2.90;;;;;;;21.57;35.39;101282.28;5031659;28;20022;-79
2023/06/13 00:12:00;;;;;;;5.78;3.00;;;;;;;21.53;35.01;101287.78;5033348;28;20071;-80
2023/06/13 00:14:26;;;;;;;4.43;3.20;;;;;;;21.47;35.25;101285.53;5032115;28;20112;-80
2023/06/13 00:16:51;;;;;;;4.13;3.08;;;;;;;21.45;35.08;101292.72;5031592;28;20165;-80
2023/06/13 00:19:17;;;;;;;4.55;3.13;;;;;;;21.41;35.62;101291.25;5031382;28;20068;-80
2023/06/13 00:21:45;;;;;;;5.45;2.78;;;;;;;21.35;35.59;101287.16;5029895;28;20044;-79
2023/06/13 00:24:11;;;;;;;5.82;3.20;;;;;;;21.30;35.78;101289.28;5034074;28;20029;-80
2023/06/13 00:26:36;;;;;;;4.63;3.20;;;;;;;21.26;36.05;101282.47;5030267;28;20024;-80
2023/06/13 00:29:02;;;;;;;6.50;3.40;;;;;;;21.21;36.05;101276.63;5031066;28;20451;-80
2023/06/13 00:31:28;;;;;;;5.53;3.30;;;;;;;21.17;36.19;101283.06;5030489;28;20030;-80
2023/06/13 00:33:58;;;;;;;5.00;3.03;;;;;;;21.11;36.30;101278.16;5035958;28;20041;-83
2023/06/13 00:36:27;;;;;;;5.60;3.20;;;;;;;21.06;36.47;101281.13;5035073;28;20061;-80
2023/06/13 00:38:53;;;;;;;4.25;3.25;;;;;;;21.01;36.88;101278.72;5030401;28;20029;-79
2023/06/13 00:41:18;;;;;;;4.85;3.10;;;;;;;20.97;36.99;101277.25;5032244;28;20067;-80
2023/06/13 00:43:43;;;;;;;4.18;3.17;;;;;;;20.91;37.37;101280.28;5031971;28;20021;-80
2023/06/13 00:46:09;;;;;;;5.05;3.10;;;;;;;20.86;37.26;101279.69;5031920;28;20025;-80
2023/06/13 00:48:36;;;;;;;6.80;3.20;;;;;;;20.80;37.32;101272.16;5031841;28;20122;-80
2023/06/13 00:51:02;;;;;;;6.47;3.30;;;;;;;20.74;37.58;101276.00;5031905;28;20028;-80
2023/06/13 00:53:31;;;;;;;4.10;3.08;;;;;;;20.68;37.68;101277.22;5029885;28;20476;-80
2023/06/13 00:55:57;;;;;;;3.67;2.95;;;;;;;20.64;37.74;101278.38;5030087;28;20097;-80
2023/06/13 00:58:23;;;;;;;3.92;3.13;;;;;;;20.59;38.15;101277.78;5032691;28;20144;-80
2023/06/13 01:00:49;;;;;;;4.70;3.30;;;;;;;20.54;38.24;101274.56;5051848;28;20197;-80
2023/06/13 01:03:15;;;;;;;4.40;3.40;;;;;;;20.50;38.33;101267.78;5051872;28;20052;-80
2023/06/13 01:05:43;;;;;;;5.65;3.25;;;;;;;20.45;38.30;101270.69;5037900;28;20424;-80
2023/06/13 01:08:23;;;;;;;5.88;3.45;;;;;;;20.40;37.84;101263.06;5030223;28;20025;-80
2023/06/13 01:11:04;;;;;;;6.50;3.30;;;;;;;20.37;37.99;101260.59;5031894;28;20037;-79
2023/06/13 01:13:39;;;;;;;5.60;3.50;;;;;;;20.35;38.15;101265.13;5031138;28;20021;-80
2023/06/13 01:16:20;;;;;;;5.13;3.75;;;;;;;20.30;38.65;101256.66;5031701;28;20037;-79
2023/06/13 01:18:50;;;;;;;4.10;3.30;;;;;;;20.25;38.79;101259.53;5042489;28;20124;-80
2023/06/13 01:21:17;;;;;;;6.53;3.47;;;;;;;20.21;39.19;101258.03;5029543;28;20120;-79
2023/06/13 01:23:57;;;;;;;7.63;3.50;;;;;;;20.16;38.87;101260.94;5042303;28;20040;-79
2023/06/13 01:26:47;;;;;;;4.43;3.40;;;;;;;20.09;40.61;101262.25;5030743;28;20108;-80
2023/06/13 01:29:15;;;;;;;4.47;3.20;;;;;;;20.02;39.42;101268.84;5030506;28;20109;-79
2023/06/13 01:31:42;;;;;;;5.47;3.40;;;;;;;19.96;40.97;101263.94;5030455;28;20480;-79
2023/06/13 01:34:09;;;;;;;6.03;3.22;;;;;;;19.94;39.76;101261.38;5030146;28;20400;-79
2023/06/13 01:36:35;;;;;;;5.78;3.63;;;;;;;19.91;39.93;101260.72;5030631;28;20029;-80
2023/06/13 01:39:01;;;;;;;5.95;3.53;;;;;;;19.88;39.98;101260.88;5030953;28;20026;-80
2023/06/13 01:41:26;;;;;;;5.90;3.38;;;;;;;19.85;40.06;101262.72;5031836;28;20079;-80
2023/06/13 01:43:51;;;;;;;5.72;3.78;;;;;;;19.82;40.22;101260.25;5030495;28;20499;-80
2023/06/13 01:46:51;;;;;;;5.72;3.55;;;;;;;19.79;39.38;101262.22;5031384;28;20030;-80
2023/06/13 01:49:25;;;;;;;4.70;3.58;;;;;;;19.74;40.38;101267.78;5027495;28;20087;-80
2023/06/13 01:52:15;;;;;;;5.28;3.92;;;;;;;19.69;40.03;101256.63;5040730;28;20104;-80
2023/06/13 01:54:45;;;;;;;7.63;3.80;;;;;;;19.63;42.56;101260.47;5045622;28;20056;-79
2023/06/13 01:57:15;;;;;;;6.13;3.88;;;;;;;19.60;42.50;101255.38;5029984;28;20042;-79
2023/06/13 01:59:43;;;;;;;5.15;3.60;;;;;;;19.53;43.06;101254.88;5030238;28;20113;-79
2023/06/13 02:02:09;;;;;;;4.18;3.30;;;;;;;19.47;43.96;101252.56;5031247;28;20108;-80
2023/06/13 02:04:40;;;;;;;6.22;3.60;;;;;;;19.43;43.08;101259.00;5032250;28;20027;-80
2023/06/13 02:07:06;;;;;;;5.27;3.40;;;;;;;19.38;46.02;101248.72;5035205;28;20033;-80
2023/06/13 02:09:31;;;;;;;4.72;3.17;;;;;;;19.31;44.54;101243.84;5036260;28;20848;-80
2023/06/13 02:11:56;;;;;;;4.80;3.58;;;;;;;19.28;46.26;101254.59;5032992;28;20025;-80
2023/06/13 02:14:23;;;;;;;6.30;3.47;;;;;;;19.21;44.02;101249.63;5034005;28;20140;-80
2023/06/13 02:16:48;;;;;;;5.97;3.60;;;;;;;19.13;45.31;101254.47;5035917;28;20486;-80
2023/06/13 02:19:13;;;;;;;5.90;3.75;;;;;;;19.11;45.26;101251.09;5033059;28;20116;-79
2023/06/13 02:21:45;;;;;;;6.95;3.60;;;;;;;19.07;44.66;101254.84;5034991;28;20071;-80
2023/06/13 02:24:10;;;;;;;5.35;3.55;;;;;;;19.05;45.78;101259.34;5035253;28;20438;-80
2023/06/13 02:26:39;;;;;;;6.03;3.47;;;;;;;19.00;45.26;101248.19;5030915;28;20029;-79
2023/06/13 02:29:05;;;;;;;5.90;3.47;;;;;;;18.93;45.72;101250.28;5033320;28;20040;-80
2023/06/13 02:31:30;;;;;;;5.82;3.72;;;;;;;18.89;45.61;101249.59;5032540;28;20025;-80
2023/06/13 02:33:56;;;;;;;6.13;3.83;;;;;;;18.87;46.91;101251.47;5034480;28;20018;-80
2023/06/13 02:36:21;;;;;;;6.70;3.90;;;;;;;18.81;45.31;101249.16;5034241;28;20078;-80
2023/06/13 02:38:46;;;;;;;5.30;4.13;;;;;;;18.77;46.26;101248.47;5036913;28;20025;-80
2023/06/13 02:41:11;;;;;;;4.50;3.50;;;;;;;18.76;44.75;101256.47;5034358;28;20025;-80
2023/06/13 02:43:37;;;;;;;6.22;3.85;;;;;;;18.71;45.13;101253.22;5032589;28;20018;-80
2023/06/13 02:46:02;;;;;;;5.15;3.92;;;;;;;18.66;45.28;101270.13;5033901;28;20029;-80
2023/06/13 02:48:27;;;;;;;6.95;4.40;;;;;;;18.61;46.71;101258.13;5033937;28;20488;-79
2023/06/13 02:50:57;;;;;;;6.03;4.00;;;;;;;18.58;46.78;101264.44;5031303;28;20469;-79
2023/06/13 02:53:22;;;;;;;6.22;3.97;;;;;;;18.54;46.39;101262.00;5033466;28;20117;-80
2023/06/13 02:55:48;;;;;;;8.77;4.22;;;;;;;18.52;48.30;101264.75;5033219;28;20128;-80
2023/06/13 02:58:13;;;;;;;5.43;3.92;;;;;;;18.47;48.42;101264.13;5031669;28;20045;-80
2023/06/13 03:00:38;;;;;;;7.15;4.03;;;;;;;18.44;47.56;101256.41;5032821;28;20045;-80
2023/06/13 03:03:04;;;;;;;6.57;4.22;;;;;;;18.40;46.61;101260.13;5033946;28;20025;-79
2023/06/13 03:05:30;;;;;;;6.03;4.20;;;;;;;18.36;47.68;101256.78;5032568;28;20051;-79
2023/06/13 03:07:59;;;;;;;6.68;4.30;;;;;;;18.31;47.03;101257.03;5033586;28;20068;-80
2023/06/13 03:10:24;;;;;;;8.73;4.43;;;;;;;18.26;49.31;101259.06;5033084;28;20052;-80
2023/06/13 03:12:50;;;;;;;6.45;4.13;;;;;;;18.24;50.16;101258.28;5033493;28;20530;-80
2023/06/13 03:15:17;;;;;;;6.50;4.13;;;;;;;18.20;48.07;101256.72;5045696;28;20120;-80
2023/06/13 03:17:44;;;;;;;5.05;3.85;;;;;;;18.18;47.17;101262.09;5031568;28;20044;-80
2023/06/13 03:20:10;;;;;;;8.43;4.00;;;;;;;18.13;47.13;101257.97;5032184;28;20459;-80
2023/06/13 03:22:35;;;;;;;7.75;4.28;;;;;;;18.10;48.67;101258.97;5031968;28;20520;-80
2023/06/13 03:25:06;;;;;;;5.63;4.20;;;;;;;18.09;48.66;101259.91;5034253;28;20060;-79
2023/06/13 03:27:32;;;;;;;7.65;4.10;;;;;;;18.08;48.23;101254.72;5032669;28;20032;-79
2023/06/13 03:29:57;;;;;;;5.93;3.85;;;;;;;18.05;47.45;101250.47;5031576;28;20021;-79
2023/06/13 03:32:23;;;;;;;6.68;4.50;;;;;;;18.01;47.70;101255.03;5029442;28;20017;-79
2023/06/13 03:34:50;;;;;;;5.70;4.22;;;;;;;17.98;47.44;101247.28;5033888;28;20476;-80
2023/06/13 03:37:15;;;;;;;5.80;4.40;;;;;;;17.96;47.22;101241.22;5029919;28;20108;-80
2023/06/13 03:39:41;;;;;;;7.40;4.43;;;;;;;17.95;46.95;101254.47;5033493;28;20109;-80
2023/06/13 03:42:07;;;;;;;6.00;4.63;;;;;;;17.93;47.61;101241.38;5032226;28;20459;-80
2023/06/13 03:44:32;;;;;;;6.97;4.07;;;;;;;17.92;47.14;101244.94;5038044;28;20104;-80
2023/06/13 03:46:58;;;;;;;6.50;4.15;;;;;;;17.92;47.01;101236.19;5032317;28;20029;-80
2023/06/13 03:49:24;;;;;;;10.55;4.20;;;;;;;17.89;50.09;101245.09;5036128;28;20029;-79
2023/06/13 03:51:51;;;;;;;6.13;4.10;;;;;;;17.90;47.85;101241.53;5030514;28;20018;-79
2023/06/13 03:54:16;;;;;;;9.70;4.45;;;;;;;17.86;48.41;101242.63;5033254;28;20021;-80
2023/06/13 03:56:42;;;;;;;7.15;4.38;;;;;;;17.83;49.39;101245.38;5033300;28;20045;-80
2023/06/13 03:59:07;;;;;;;9.60;4.35;;;;;;;17.80;49.00;101235.00;5031514;28;20022;-80
2023/06/13 04:01:32;;;;;;;6.80;4.75;;;;;;;17.81;50.66;101248.13;5032723;28;20424;-80
2023/06/13 04:03:58;;;;;;;7.00;4.18;;;;;;;17.83;50.12;101254.16;5032758;28;20033;-80
2023/06/13 04:06:23;;;;;;;6.25;4.03;;;;;;;17.84;47.69;101255.00;5031870;28;20052;-80
2023/06/13 04:08:48;;;;;;;7.43;4.10;;;;;;;17.83;47.58;101261.19;5032689;28;20083;-80
2023/06/13 04:11:14;;;;;;;11.30;4.38;;;;;;;17.81;50.22;101263.03;5032689;28;20030;-80
2023/06/13 04:13:41;;;;;;;5.63;4.28;;;;;;;17.81;50.93;101260.41;5032554;28;20076;-80
2023/06/13 04:16:06;;;;;;;8.77;4.45;;;;;;;17.81;49.34;101263.91;5046924;28;20075;-80
2023/06/13 04:18:33;;;;;;;6.55;4.22;;;;;;;17.80;50.44;101261.34;5032205;28;20037;-80
2023/06/13 04:20:59;;;;;;;7.72;4.30;;;;;;;17.80;50.02;101266.59;5058234;28;20028;-79
2023/06/13 04:23:27;;;;;;;6.93;4.18;;;;;;;17.80;49.95;101262.19;5032864;28;20477;-80
2023/06/13 04:25:53;;;;;;;6.53;4.22;;;;;;;17.82;50.58;101264.75;5032653;28;20034;-79
2023/06/13 04:28:18;;;;;;;8.88;4.07;;;;;;;17.82;49.17;101259.47;5031367;28;20032;-80
2023/06/13 04:30:46;;;;;;;8.98;4.30;;;;;;;17.81;50.19;101263.03;5031988;28;20029;-80
2023/06/13 04:33:17;;;;;;;6.68;4.10;;;;;;;17.82;51.87;101270.00;5030423;28;20026;-80
2023/06/13 04:35:44;;;;;;;6.38;4.13;;;;;;;17.87;49.81;101270.63;5031729;28;20498;-80
2023/06/13 04:38:14;;;;;;;7.75;4.28;;;;;;;17.89;49.52;101271.41;5029424;28;20160;-80
2023/06/13 04:40:40;;;;;;;6.00;4.28;;;;;;;17.93;49.53;101272.09;5030778;28;20112;-80
2023/06/13 04:43:05;;;;;;;5.28;4.15;;;;;;;17.97;50.55;101278.94;5031123;28;20239;-80
2023/06/13 04:45:32;;;;;;;9.15;4.10;;;;;;;17.99;48.50;101271.84;5030495;28;20098;-80
2023/06/13 04:48:01;;;;;;;6.05;4.15;;;;;;;18.02;49.28;101269.91;5030663;28;20090;-79
2023/06/13 04:50:28;;;;;;;7.00;4.32;;;;;;;18.04;49.03;101268.03;5034176;28;20162;-79
2023/06/13 04:52:54;;;;;;;5.53;4.03;;;;;;;18.09;50.26;101272.25;5033807;28;20029;-79
2023/06/13 04:55:22;;;;;;;6.72;4.20;;;;;;;18.14;49.20;101276.34;5032105;28;20074;-79
2023/06/13 04:57:48;;;;;;;8.30;4.70;;;;;;;18.20;50.69;101277.78;5030190;28;20087;-79
2023/06/13 05:00:15;;;;;;;6.50;4.30;;;;;;;18.26;48.79;101280.13;5028323;28;20033;-80
2023/06/13 05:02:41;;;;;;;5.93;3.97;;;;;;;18.31;48.37;101283.34;5034330;28;20037;-79
2023/06/13 05:05:07;;;;;;;5.57;4.10;;;;;;;18.35;47.94;101284.91;5034086;28;20031;-79
2023/06/13 05:07:34;;;;;;;6.03;3.90;;;;;;;18.39;49.66;101284.75;5030736;28;20029;-78
2023/06/13 05:10:00;;;;;;;6.32;3.90;;;;;;;18.45;53.00;101294.97;5029240;28;20018;-79
2023/06/13 05:12:25;;;;;;;4.70;3.90;;;;;;;18.48;50.97;101293.03;5030588;28;20027;-78
2023/06/13 05:14:52;;;;;;;5.25;4.10;;;;;;;18.54;49.44;101291.88;5029065;28;20535;-79
2023/06/13 05:17:17;;;;;;;6.90;4.07;;;;;;;18.59;48.60;101292.47;5028965;28;20025;-79
2023/06/13 05:19:42;;;;;;;5.75;4.38;;;;;;;18.65;47.45;101294.78;5030430;28;20083;-79
2023/06/13 05:22:08;;;;;;;7.43;4.53;;;;;;;18.72;47.68;101297.94;5029146;28;20491;-79
2023/06/13 05:24:33;;;;;;;5.97;4.60;;;;;;;18.77;47.08;101293.28;5039698;28;20408;-79
2023/06/13 05:26:59;;;;;;;7.35;5.05;;;;;;;18.81;48.15;101293.97;5031074;28;20033;-80
2023/06/13 05:29:26;;;;;;;6.13;5.00;;;;;;;18.84;47.66;101290.31;5030787;28;20028;-79
2023/06/13 05:31:52;;;;;;;7.95;4.78;;;;;;;18.88;47.08;101290.06;5029967;28;20053;-79
2023/06/13 05:34:17;;;;;;;7.53;4.55;;;;;;;18.93;48.01;101290.69;5024615;28;20469;-80
2023/06/13 05:36:42;;;;;;;6.07;4.60;;;;;;;18.99;48.39;101286.03;5029387;28;20083;-81
2023/06/13 05:39:08;;;;;;;7.40;4.50;;;;;;;19.04;46.55;101287.50;5034769;28;20530;-80
2023/06/13 05:41:34;;;;;;;7.57;4.72;;;;;;;19.10;46.19;101291.59;5034015;28;20026;-79
2023/06/13 05:43:59;;;;;;;8.02;4.88;;;;;;;19.17;46.77;101282.38;5034730;28;20421;-79
2023/06/13 05:46:25;;;;;;;8.43;4.70;;;;;;;19.22;47.30;101283.00;5035556;28;20052;-79
2023/06/13 05:48:50;;;;;;;7.93;5.03;;;;;;;19.26;45.83;101286.31;5034485;28;20025;-80
2023/06/13 05:51:15;;;;;;;6.72;4.50;;;;;;;19.33;48.33;101286.81;5032494;28;20113;-78
2023/06/13 05:53:41;;;;;;;6.60;4.75;;;;;;;19.38;46.42;101287.41;5041925;28;20287;-79
2023/06/13 05:56:06;;;;;;;9.60;5.07;;;;;;;19.44;47.46;101289.72;5028059;28;20060;-78
2023/06/13 05:58:31;;;;;;;6.30;4.57;;;;;;;19.49;45.68;101292.09;5034638;28;20025;-79
2023/06/13 06:00:57;;;;;;;8.32;5.20;;;;;;;19.55;48.40;101287.31;5032729;28;20041;-79
2023/06/13 06:03:22;;;;;;;7.70;5.18;;;;;;;19.62;46.32;101286.97;5035283;28;20021;-79
2023/06/13 06:05:47;;;;;;;6.38;4.47;;;;;;;19.68;46.75;101282.19;5033498;28;20034;-79
2023/06/13 06:08:13;;;;;;;7.00;4.50;;;;;;;19.74;50.12;101296.81;5030200;28;20033;-80
2023/06/13 06:10:39;;;;;;;5.82;4.32;;;;;;;19.79;49.61;101294.78;5030588;28;20542;-80
2023/06/13 06:13:04;;;;;;;5.45;4.22;;;;;;;19.84;46.32;101284.78;5032059;28;20051;-80
2023/06/13 06:15:31;;;;;;;6.78;4.38;;;;;;;19.91;46.50;101295.03;5032904;28;20085;-81
2023/06/13 06:17:57;;;;;;;8.00;4.70;;;;;;;19.97;48.82;101297.34;5028757;28;20025;-82
2023/06/13 06:20:22;;;;;;;6.80;4.80;;;;;;;20.01;45.39;101294.41;5030427;28;20447;-82
2023/06/13 06:22:48;;;;;;;8.10;4.38;;;;;;;20.07;45.38;101300.28;5032119;28;20017;-81
2023/06/13 06:25:19;;;;;;;6.88;4.18;;;;;;;20.12;47.97;101299.06;5033092;28;20065;-81
2023/06/13 06:27:45;;;;;;;6.82;4.30;;;;;;;20.16;48.18;101287.34;5035737;28;20022;-80
2023/06/13 06:30:11;;;;;;;5.65;4.03;;;;;;;20.22;48.14;101293.22;5033244;28;20025;-82
2023/06/13 06:32:36;;;;;;;6.70;4.22;;;;;;;20.27;49.00;101293.81;5035364;28;20380;-80
2023/06/13 06:35:03;;;;;;;5.90;4.22;;;;;;;20.34;49.52;101289.00;5032231;28;20033;-85
2023/06/13 06:37:28;;;;;;;7.15;4.40;;;;;;;20.38;48.53;101291.38;5032577;28;20035;-83
2023/06/13 06:39:54;;;;;;;5.97;4.18;;;;;;;20.44;49.35;101290.13;5026729;28;20422;-83
2023/06/13 06:42:19;;;;;;;6.95;4.40;;;;;;;20.48;46.83;101296.94;5031332;28;20029;-82
2023/06/13 06:44:45;;;;;;;5.47;3.90;;;;;;;20.53;47.89;101294.03;5029070;28;20020;-82
2023/06/13 06:47:10;;;;;;;6.93;4.10;;;;;;;20.58;48.39;101294.59;5031672;28;20032;-82
2023/06/13 06:49:35;;;;;;;6.10;4.10;;;;;;;20.65;47.97;101298.59;5030223;28;20021;-81
2023/06/13 06:52:00;;;;;;;5.88;4.20;;;;;;;20.68;47.43;101295.72;5028632;28;20572;-82
2023/06/13 06:54:26;;;;;;;4.85;4.07;;;;;;;20.73;44.67;101295.47;5028645;28;20079;-81
2023/06/13 06:56:51;;;;;;;8.00;4.50;;;;;;;20.75;44.21;101288.28;5027075;28;20495;-81
2023/06/13 06:59:16;;;;;;;6.18;4.43;;;;;;;20.78;43.56;101293.41;5034960;28;20041;-81
2023/06/13 07:01:42;;;;;;;9.25;5.13;;;;;;;20.82;43.35;101294.09;5032676;28;20026;-81
2023/06/13 07:04:07;;;;;;;8.07;4.65;;;;;;;20.84;44.07;101294.81;5034598;28;20025;-80
2023/06/13 07:06:33;;;;;;;6.85;4.68;;;;;;;20.88;45.48;101285.75;5031351;28;20060;-80
2023/06/13 07:08:58;;;;;;;6.63;4.60;;;;;;;20.93;44.22;101291.59;5031786;28;20045;-79
2023/06/13 07:11:23;;;;;;;5.97;4.20;;;;;;;20.98;46.33;101289.53;5034763;28;20381;-81
2023/06/13 07:13:48;;;;;;;6.78;4.40;;;;;;;21.02;43.58;101291.00;5031072;28;20052;-80
2023/06/13 07:16:14;;;;;;;5.25;4.10;;;;;;;21.06;43.54;101303.09;5035917;28;20079;-78
2023/06/13 07:18:39;;;;;;;6.32;4.60;;;;;;;21.12;43.08;101301.03;5033320;28;20090;-78
2023/06/13 07:21:05;;;;;;;9.15;4.53;;;;;;;21.16;43.26;101297.25;5029110;28;20036;-83
2023/06/13 07:23:30;;;;;;;7.57;4.32;;;;;;;21.20;42.00;101302.25;5030825;28;20028;-81
2023/06/13 07:25:56;;;;;;;6.88;4.07;;;;;;;21.25;42.02;101306.41;5041821;28;20090;-78
2023/06/13 07:28:21;;;;;;;6.53;4.10;;;;;;;21.27;43.45;101307.13;5032823;28;20029;-79
2023/06/13 07:30:46;;;;;;;6.18;4.03;;;;;;;21.31;42.27;101306.84;5029902;28;20021;-82
2023/06/13 07:33:12;;;;;;;5.53;4.05;;;;;;;21.34;42.75;101306.66;5032498;28;20030;-81
2023/06/13 07:35:37;;;;;;;5.30;4.07;;;;;;;21.38;42.42;101302.03;5032342;28;20026;-81
2023/06/13 07:38:03;;;;;;;4.90;3.75;;;;;;;21.44;42.18;101306.06;5032658;28;20029;-80
2023/06/13 07:40:28;;;;;;;6.20;4.03;;;;;;;21.49;41.61;101302.16;5031407;28;20020;-81
2023/06/13 07:42:54;;;;;;;6.18;3.80;;;;;;;21.52;43.13;101304.63;5030216;28;20029;-83
2023/06/13 07:45:20;;;;;;;5.78;4.00;;;;;;;21.57;41.49;101299.00;5031616;28;20020;-82
2023/06/13 07:47:45;;;;;;;5.90;4.13;;;;;;;21.60;42.34;101298.00;5030480;28;20491;-81
2023/06/13 07:50:11;;;;;;;7.45;3.97;;;;;;;21.63;41.96;101296.00;5030444;28;20040;-82
2023/06/13 07:52:36;;;;;;;7.03;4.18;;;;;;;21.67;42.92;101292.22;5032865;28;20029;-81
2023/06/13 07:55:02;;;;;;;6.57;3.88;;;;;;;21.70;41.41;101299.09;5033076;28;20028;-82
2023/06/13 07:57:27;;;;;;;5.50;4.13;;;;;;;21.73;42.34;101301.56;5028162;28;20483;-81
2023/06/13 07:59:54;;;;;;;8.52;4.43;;;;;;;21.77;41.66;101299.53;5027215;28;20030;-80
2023/06/13 08:02:19;;;;;;;6.80;3.92;;;;;;;21.82;42.57;101300.09;5030937;28;20117;-81
2023/06/13 08:04:45;;;;;;;5.32;4.10;;;;;;;21.87;41.77;101297.97;5031397;28;20111;-81
2023/06/13 08:07:10;;;;;;;6.65;4.10;;;;;;;21.92;42.46;101295.03;5032879;28;20030;-80
2023/06/13 08:09:36;;;;;;;5.25;4.10;;;;;;;21.96;42.63;101294.72;5029525;28;20032;-82
2023/06/13 08:12:01;;;;;;;6.68;4.20;;;;;;;22.03;43.67;101303.09;5029284;28;20117;-82
2023/06/13 08:14:26;;;;;;;5.72;4.10;;;;;;;22.08;42.86;101295.72;5027989;28;20123;-82
2023/06/13 08:16:52;;;;;;;5.30;4.00;;;;;;;22.13;40.07;101300.69;5027334;28;20091;-82
2023/06/13 08:19:17;;;;;;;5.95;4.03;;;;;;;22.16;40.35;101303.13;5028166;28;20069;-82
2023/06/13 08:21:43;;;;;;;4.80;3.80;;;;;;;22.23;40.43;101304.41;5027082;28;20389;-81
2023/06/13 08:24:08;;;;;;;6.45;3.83;;;;;;;22.29;40.17;101303.13;5031348;28;20053;-82
2023/06/13 08:26:33;;;;;;;5.15;3.78;;;;;;;22.37;40.33;101294.69;5026610;28;20352;-82
2023/06/13 08:29:03;;;;;;;4.28;3.58;;;;;;;22.43;39.25;101294.28;5030486;28;20053;-83
2023/06/13 08:31:31;;;;;;;5.38;3.97;;;;;;;22.49;40.74;101299.16;5033616;28;20063;-82
2023/06/13 08:33:58;;;;;;;6.00;4.28;;;;;;;22.54;40.70;101297.03;5045269;28;20388;-82
2023/06/13 08:36:24;;;;;;;6.35;3.92;;;;;;;22.57;38.82;101288.84;5031358;28;20021;-82
2023/06/13 08:38:50;;;;;;;5.97;3.55;;;;;;;22.62;38.42;101295.66;5031740;28;20036;-82
2023/06/13 08:41:15;;;;;;;5.63;3.85;;;;;;;22.63;40.20;101286.75;5031593;28;20034;-82
2023/06/13 08:43:44;;;;;;;6.72;3.90;;;;;;;22.63;38.97;101284.91;5028710;28;20071;-82
2023/06/13 08:46:11;;;;;;;6.72;3.60;;;;;;;22.66;39.02;101283.88;5033800;28;20060;-82
2023/06/13 08:48:37;;;;;;;5.32;3.90;;;;;;;22.71;38.62;101287.06;5031797;28;20072;-82
2023/06/13 08:51:05;;;;;;;6.50;3.95;;;;;;;22.73;38.67;101285.13;5031560;28;20017;-82
2023/06/13 08:53:32;;;;;;;5.53;3.97;;;;;;;22.78;39.37;101280.34;5033481;28;20036;-82
2023/06/13 08:56:03;;;;;;;7.30;3.85;;;;;;;22.86;39.49;101271.84;5033144;28;20095;-86
2023/06/13 08:58:33;;;;;;;6.53;3.80;;;;;;;22.91;37.86;101277.69;5031602;28;20026;-80
2023/06/13 09:01:00;;;;;;;6.57;3.80;;;;;;;22.95;38.10;101276.50;5030405;28;20567;-82
2023/06/13 09:03:28;;;;;;;6.38;3.70;;;;;;;22.99;39.70;101269.19;5030148;28;20028;-81
2023/06/13 09:05:55;;;;;;;10.27;3.92;;;;;;;23.06;39.38;101270.41;5031290;28;20021;-81
2023/06/13 09:08:22;;;;;;;7.45;4.03;;;;;;;23.10;37.62;101263.94;5031229;28;20026;-81
2023/06/13 09:10:49;;;;;;;6.07;3.65;;;;;;;23.14;40.22;101267.22;5031049;28;20035;-82
2023/06/13 09:13:16;;;;;;;6.85;3.75;;;;;;;23.18;38.02;101269.53;5030547;28;20031;-82
2023/06/13 09:15:42;;;;;;;7.28;3.70;;;;;;;23.25;39.78;101261.16;5030731;28;20029;-83
2023/06/13 09:18:08;;;;;;;5.00;3.42;;;;;;;23.30;39.71;101273.16;5031231;28;20022;-82
2023/06/13 09:20:33;;;;;;;5.60;3.97;;;;;;;23.36;37.43;101271.84;5030164;28;20033;-82
2023/06/13 09:23:00;;;;;;;4.68;3.22;;;;;;;23.44;36.54;101264.16;5029374;28;20063;-82
2023/06/13 09:25:26;;;;;;;6.55;3.53;;;;;;;23.51;36.28;101272.50;5028232;28;20024;-81
2023/06/13 09:27:52;;;;;;;6.18;3.40;;;;;;;23.57;35.76;101268.56;5028014;28;20029;-81
2023/06/13 09:30:17;;;;;;;5.15;3.58;;;;;;;23.60;36.67;101269.19;5028709;28;20024;-81
2023/06/13 09:32:53;;;;;;;5.57;3.30;;;;;;;23.65;36.52;101261.69;5029320;28;20088;-81
2023/06/13 09:35:18;;;;;;;6.85;3.60;;;;;;;23.71;35.03;101265.72;5028234;28;20087;-82
2023/06/13 09:37:45;;;;;;;6.78;3.63;;;;;;;23.77;37.45;101259.94;5028695;28;20025;-82
2023/06/13 09:40:11;;;;;;;5.32;3.40;;;;;;;23.84;37.75;101267.47;5028457;28;21467;-82
2023/06/13 09:42:37;;;;;;;5.50;3.65;;;;;;;23.90;34.24;101259.03;5028436;28;20465;-81
2023/06/13 09:45:08;;;;;;;5.72;3.50;;;;;;;23.94;35.22;101261.34;5029283;28;20029;-81
2023/06/13 09:47:33;;;;;;;3.97;3.30;;;;;;;23.98;33.26;101261.97;5028470;28;20104;-82
2023/06/13 09:50:00;;;;;;;6.03;3.65;;;;;;;24.02;33.10;101263.44;5028747;28;20021;-82
2023/06/13 09:52:27;;;;;;;6.72;3.70;;;;;;;24.06;34.21;101262.25;5029548;28;20029;-82
2023/06/13 09:54:53;;;;;;;5.40;3.58;;;;;;;24.05;33.67;101257.88;5032627;28;20033;-81
2023/06/13 09:57:19;;;;;;;5.55;3.10;;;;;;;24.07;35.43;101263.06;5030380;28;20061;-79
2023/06/13 09:59:46;;;;;;;5.32;3.58;;;;;;;24.11;33.44;101253.91;5032294;28;20021;-82
2023/06/13 10:02:11;;;;;;;5.25;3.35;;;;;;;24.16;31.97;101253.53;5030021;28;20034;-79
2023/06/13 10:04:37;;;;;;;4.47;3.38;;;;;;;24.19;33.35;101248.00;5029706;28;20033;-79
2023/06/13 10:07:02;;;;;;;5.63;3.40;;;;;;;24.23;34.29;101254.78;5029180;28;20036;-78
2023/06/13 10:09:27;;;;;;;5.40;3.53;;;;;;;24.28;34.57;101249.94;5026962;28;20068;-80
2023/06/13 10:11:55;;;;;;;7.15;3.10;;;;;;;24.32;34.68;101250.56;5029539;28;20054;-80
2023/06/13 10:14:22;;;;;;;5.15;3.38;;;;;;;24.31;32.75;101247.03;5029846;28;20025;-79
2023/06/13 10:17:02;;;;;;;6.40;3.42;;;;;;;24.37;32.92;101254.53;5029554;28;20384;-79
2023/06/13 10:19:31;;;;;;;5.03;3.50;;;;;;;24.43;33.18;101255.88;5029742;28;20381;-82
2023/06/13 10:21:57;;;;;;;5.78;3.30;;;;;;;24.47;33.27;101249.34;5025135;28;20037;-83
2023/06/13 10:24:24;;;;;;;4.93;3.30;;;;;;;24.53;32.56;101245.38;5027837;28;21412;-82
2023/06/13 10:26:55;;;;;;;5.45;3.60;;;;;;;24.55;34.05;101254.06;5030766;28;20028;-82
2023/06/13 10:29:58;;;;;;;4.00;3.40;;;;;;;24.60;33.83;101245.72;5034037;28;20037;-83
2023/06/13 10:32:35;;;;;;;5.75;3.13;;;;;;;24.60;31.94;101249.22;5033549;28;20358;-82
2023/06/13 10:35:30;;;;;;;5.13;3.60;;;;;;;24.64;32.57;101242.69;5033991;28;20029;-82
2023/06/13 10:38:33;;;;;;;7.07;3.50;;;;;;;24.66;32.69;101239.94;5032124;28;20128;-82
2023/06/13 10:41:29;;;;;;;7.05;3.92;;;;;;;24.68;32.27;101238.81;5033185;28;20025;-83
2023/06/13 10:44:10;;;;;;;7.32;4.05;;;;;;;24.67;32.43;101247.78;5036600;28;20029;-82
2023/06/13 10:46:37;;;;;;;6.82;3.78;;;;;;;24.65;29.39;101241.72;5033123;28;20025;-83
2023/06/13 10:49:02;;;;;;;6.78;3.60;;;;;;;24.67;32.46;101245.09;5032486;28;20057;-85
2023/06/13 10:51:30;;;;;;;6.10;3.35;;;;;;;24.70;29.70;101247.56;5031648;28;20053;-81
2023/06/13 10:54:09;;;;;;;7.05;3.63;;;;;;;24.74;32.66;101253.47;5033606;28;20048;-82
2023/06/13 10:56:37;;;;;;;6.13;3.72;;;;;;;24.77;31.52;101247.06;5034521;28;20049;-82
2023/06/13 10:59:15;;;;;;;4.78;3.70;;;;;;;24.79;31.72;101240.66;5032858;28;20083;-79
2023/06/13 11:01:42;;;;;;;5.75;3.78;;;;;;;24.81;31.76;101244.06;5032548;28;20744;-80
2023/06/13 11:04:14;;;;;;;5.90;4.15;;;;;;;24.82;30.66;101250.19;5029470;28;20029;-79
2023/06/13 11:06:43;;;;;;;6.80;4.40;;;;;;;24.85;33.57;101237.50;5029632;28;20458;-80
2023/06/13 11:09:20;;;;;;;5.10;4.13;;;;;;;24.88;32.61;101236.41;5033059;28;20091;-80
2023/06/13 11:12:00;;;;;;;5.03;3.97;;;;;;;24.90;32.43;101226.50;5033452;28;20068;-81
2023/06/13 11:14:27;;;;;;;7.07;3.97;;;;;;;24.94;31.22;101227.09;5034516;28;20492;-81
2023/06/13 11:16:53;;;;;;;8.13;4.03;;;;;;;24.98;33.05;101229.38;5040211;28;20022;-81
2023/06/13 11:19:24;;;;;;;6.72;4.60;;;;;;;25.03;31.92;101225.50;5031520;28;20057;-82
2023/06/13 11:22:10;;;;;;;5.68;4.25;;;;;;;25.05;32.75;101216.41;5035140;28;20489;-80
2023/06/13 11:24:36;;;;;;;6.55;4.93;;;;;;;25.05;33.23;101213.75;5033309;28;20029;-80
2023/06/13 11:27:06;;;;;;;6.22;4.30;;;;;;;25.09;32.86;101225.84;5033711;28;20041;-81